Dallas, South Dakota
Current Conditions -  °F | °C
As of 7:53 AM on Thursday 29 Jan 2015 (Local Time) from KICR Reporting Station
Overcast Overcast  
Wind Chill: 26°   Ceiling: 3200
Heat Index: 36°   Visibility: 10mi
Dew Point: 26°   Wind: 16mph
Humidity: 67%   Direction: 320°NW
Pressure: 30.4"   Gusts: NA
Location:  43.24°N, 99.52°W
Report Text: KICR 291353Z AUTO 32014KT 10SM OVC032 02/M03 A3040 RMK AO2 SLP309 T00221033
Loading
Personal Weather Stations






























Interactive Weather Map New forecast layout! Learn more

10-Day Weather Forecast

Advertisements
Track Severe Weather on mobile